Time;durP1;ratioP1;P1;durP2;ratioP2;P2;SDS_P1;SDS_P2;PMS_P1;PMS_P2;Temp;Humidity;BMP_temperature;BMP_pressure;BME280_temperature;BME280_humidity;BME280_pressure;Samples;Min_cycle;Max_cycle;Signal;HPM_P1;HPM_P2
2023/09/01 00:02:13;;;;;;;4.32;2.03;;;18.00;99.90;;;;;;5077735;28;20223;-67
2023/09/01 00:04:39;;;;;;;3.55;2.20;;;17.90;99.90;;;;;;5064681;28;20176;-67
2023/09/01 00:07:07;;;;;;;4.03;2.30;;;17.90;99.90;;;;;;5072215;28;20283;-67
2023/09/01 00:09:36;;;;;;;3.47;2.08;;;17.90;99.90;;;;;;5067456;28;20219;-66
2023/09/01 00:12:02;;;;;;;4.07;2.30;;;17.90;99.90;;;;;;5060370;28;20192;-66
2023/09/01 00:14:30;;;;;;;2.60;1.80;;;17.90;99.90;;;;;;5060605;28;20185;-66
2023/09/01 00:16:55;;;;;;;3.97;2.10;;;17.80;99.90;;;;;;5059428;28;20188;-66
2023/09/01 00:19:23;;;;;;;3.95;2.25;;;17.80;99.90;;;;;;5056723;28;20203;-66
2023/09/01 00:21:53;;;;;;;4.43;2.60;;;17.80;99.90;;;;;;5055481;28;20199;-66
2023/09/01 00:24:19;;;;;;;4.15;2.60;;;17.70;99.90;;;;;;5059165;28;20173;-66
2023/09/01 00:26:46;;;;;;;7.57;2.60;;;17.70;99.90;;;;;;5072916;28;20260;-66
2023/09/01 00:29:12;;;;;;;3.42;2.05;;;17.70;99.90;;;;;;5061635;28;20200;-65
2023/09/01 00:31:40;;;;;;;3.20;2.13;;;17.70;99.90;;;;;;5066816;28;20215;-66
2023/09/01 00:34:05;;;;;;;2.63;2.00;;;17.60;99.90;;;;;;5039876;28;20182;-66
2023/09/01 00:36:33;;;;;;;3.03;2.03;;;17.60;99.90;;;;;;5042875;28;20235;-65
2023/09/01 00:38:59;;;;;;;3.42;2.17;;;17.70;99.90;;;;;;5062641;28;20291;-66
2023/09/01 00:41:24;;;;;;;3.65;2.50;;;17.60;99.90;;;;;;5060774;28;20283;-66
2023/09/01 00:43:53;;;;;;;5.00;2.50;;;17.60;99.90;;;;;;5049169;28;20200;-67
2023/09/01 00:46:21;;;;;;;3.92;2.35;;;17.60;99.90;;;;;;5058953;28;20192;-67
2023/09/01 00:48:48;;;;;;;3.13;2.10;;;17.70;99.90;;;;;;5056348;28;20316;-67
2023/09/01 00:51:16;;;;;;;2.95;2.30;;;17.60;99.90;;;;;;5056292;28;20201;-67
2023/09/01 00:53:47;;;;;;;3.58;2.20;;;17.60;99.90;;;;;;5060861;28;20173;-67
2023/09/01 00:56:15;;;;;;;3.25;2.28;;;17.60;99.90;;;;;;5059729;28;20169;-65
2023/09/01 00:58:43;;;;;;;4.63;2.42;;;17.60;99.90;;;;;;5060495;28;20201;-66
2023/09/01 01:01:09;;;;;;;3.40;2.08;;;17.60;99.90;;;;;;5053657;28;20208;-67
2023/09/01 01:03:35;;;;;;;4.30;2.13;;;17.60;99.90;;;;;;5057876;28;20176;-66
2023/09/01 01:06:55;;;;;;;3.33;2.08;;;17.60;99.90;;;;;;5060265;28;20348;-67
2023/09/01 01:09:43;;;;;;;4.47;2.03;;;17.60;99.90;;;;;;4996983;28;20178;-66
2023/09/01 01:12:24;;;;;;;5.32;2.40;;;17.60;99.90;;;;;;5055390;28;20216;-67
2023/09/01 01:14:53;;;;;;;3.20;2.17;;;17.60;99.90;;;;;;5059005;28;20238;-66
2023/09/01 01:17:22;;;;;;;3.72;2.22;;;17.60;99.90;;;;;;5061508;28;20243;-66
2023/09/01 01:20:13;;;;;;;5.53;2.70;;;17.60;99.90;;;;;;5046925;28;20211;-66
2023/09/01 01:22:46;;;;;;;5.75;3.15;;;17.60;99.90;;;;;;5049523;28;20254;-66
2023/09/01 01:25:12;;;;;;;3.17;2.58;;;17.60;99.90;;;;;;5068559;28;20176;-66
2023/09/01 01:27:39;;;;;;;6.32;2.90;;;17.60;99.90;;;;;;5067402;28;20263;-66
2023/09/01 01:30:05;;;;;;;2.88;2.10;;;17.60;99.90;;;;;;5073741;28;20233;-66
2023/09/01 01:32:35;;;;;;;4.63;2.40;;;17.60;99.90;;;;;;5053843;28;20204;-66
2023/09/01 01:35:29;;;;;;;4.05;2.50;;;17.60;99.90;;;;;;5046032;28;20185;-67
2023/09/01 01:38:20;;;;;;;4.20;2.75;;;17.60;99.90;;;;;;5055385;28;20220;-66
2023/09/01 01:40:53;;;;;;;3.38;2.65;;;17.60;99.90;;;;;;5058184;28;20199;-68
2023/09/01 01:43:28;;;;;;;4.20;2.83;;;17.60;99.90;;;;;;5063118;28;20234;-66
2023/09/01 01:45:57;;;;;;;3.60;2.38;;;17.50;99.90;;;;;;5056110;28;20180;-67
2023/09/01 01:48:25;;;;;;;3.63;2.60;;;17.50;99.90;;;;;;5058343;28;20176;-66
2023/09/01 01:50:54;;;;;;;3.28;2.35;;;17.50;99.90;;;;;;5057963;28;20189;-67
2023/09/01 01:53:21;;;;;;;3.20;2.20;;;17.50;99.90;;;;;;5058565;28;20203;-67
2023/09/01 01:55:47;;;;;;;2.95;2.17;;;17.50;99.90;;;;;;5060538;28;20180;-67
2023/09/01 01:58:12;;;;;;;3.72;2.28;;;17.60;99.90;;;;;;5056008;28;20184;-67
2023/09/01 02:00:38;;;;;;;3.00;2.00;;;17.50;99.90;;;;;;5053919;28;20204;-66
2023/09/01 02:03:04;;;;;;;2.70;2.08;;;17.50;99.90;;;;;;5059395;28;20188;-66
2023/09/01 02:05:30;;;;;;;5.50;2.10;;;17.60;99.90;;;;;;5057766;28;20188;-67
2023/09/01 02:07:58;;;;;;;5.07;2.20;;;17.60;99.90;;;;;;5055236;28;21183;-66
2023/09/01 02:10:24;;;;;;;4.63;2.10;;;17.50;99.90;;;;;;5056211;28;20242;-66
2023/09/01 02:12:49;;;;;;;4.00;2.25;;;17.50;99.90;;;;;;5055541;28;20208;-66
2023/09/01 02:15:17;;;;;;;2.75;1.90;;;17.50;99.90;;;;;;5053513;28;20234;-67
2023/09/01 02:17:43;;;;;;;3.17;1.83;;;17.50;99.90;;;;;;5059361;28;20180;-66
2023/09/01 02:20:19;;;;;;;2.72;2.00;;;17.50;99.90;;;;;;5064530;28;20295;-66
2023/09/01 02:22:47;;;;;;;2.65;1.85;;;17.40;99.90;;;;;;5058005;28;20195;-67
2023/09/01 02:25:13;;;;;;;3.08;1.73;;;17.40;99.90;;;;;;5062980;28;20275;-69
2023/09/01 02:27:41;;;;;;;2.60;2.10;;;17.40;99.90;;;;;;5058184;28;20173;-67
2023/09/01 02:30:08;;;;;;;3.17;1.90;;;17.40;99.90;;;;;;5070311;28;20172;-67
2023/09/01 02:32:34;;;;;;;3.05;2.00;;;17.40;99.90;;;;;;5057849;28;20204;-66
2023/09/01 02:35:06;;;;;;;2.95;1.92;;;17.30;99.90;;;;;;5058026;28;20282;-67
2023/09/01 02:37:35;;;;;;;2.55;1.90;;;17.30;99.90;;;;;;5074520;28;20172;-67
2023/09/01 02:40:10;;;;;;;2.90;1.90;;;17.30;99.90;;;;;;5057427;28;20215;-66
2023/09/01 02:42:37;;;;;;;2.80;1.80;;;17.30;99.90;;;;;;5054245;28;20256;-66
2023/09/01 02:45:03;;;;;;;2.60;1.85;;;17.30;99.90;;;;;;5065126;28;20516;-67
2023/09/01 02:47:31;;;;;;;3.70;2.05;;;17.30;99.90;;;;;;5050326;28;20264;-66
2023/09/01 02:49:56;;;;;;;2.58;2.03;;;17.30;99.90;;;;;;5057595;28;20369;-67
2023/09/01 02:52:22;;;;;;;4.28;2.20;;;17.30;99.90;;;;;;5042841;28;20197;-66
2023/09/01 02:54:48;;;;;;;2.47;2.00;;;17.30;99.90;;;;;;5047374;28;20188;-66
2023/09/01 02:57:13;;;;;;;2.47;1.80;;;17.30;99.90;;;;;;5057468;28;20169;-67
2023/09/01 02:59:41;;;;;;;3.50;2.00;;;17.30;99.90;;;;;;5060269;28;20200;-67
2023/09/01 03:02:07;;;;;;;4.90;2.20;;;17.30;99.90;;;;;;5056184;28;20185;-67
2023/09/01 03:04:34;;;;;;;3.75;2.33;;;17.30;99.90;;;;;;5057376;28;20200;-68
2023/09/01 03:07:00;;;;;;;2.63;2.10;;;17.20;99.90;;;;;;5061725;28;20185;-66
2023/09/01 03:09:25;;;;;;;3.40;2.35;;;17.20;99.90;;;;;;5048370;28;20245;-66
2023/09/01 03:11:51;;;;;;;2.80;2.10;;;17.20;99.90;;;;;;5057862;28;20276;-66
2023/09/01 03:14:16;;;;;;;3.88;2.40;;;17.20;99.90;;;;;;5070506;28;20180;-67
2023/09/01 03:16:44;;;;;;;4.05;2.30;;;17.20;99.90;;;;;;5066911;28;20199;-66
2023/09/01 03:19:10;;;;;;;3.25;2.03;;;17.20;99.90;;;;;;5050975;28;20543;-67
2023/09/01 03:21:36;;;;;;;2.83;2.00;;;17.20;99.90;;;;;;5053596;28;20264;-66
2023/09/01 03:24:04;;;;;;;5.75;2.35;;;17.20;99.90;;;;;;5057864;28;20225;-66
2023/09/01 03:26:30;;;;;;;3.95;2.20;;;17.20;99.90;;;;;;5054535;28;20197;-66
2023/09/01 03:28:55;;;;;;;3.05;1.88;;;17.10;99.90;;;;;;5075081;28;20184;-67
2023/09/01 03:31:21;;;;;;;3.30;2.22;;;17.20;99.90;;;;;;5051383;28;20187;-66
2023/09/01 03:33:47;;;;;;;4.03;2.38;;;17.10;99.90;;;;;;5049551;28;20160;-66
2023/09/01 03:36:16;;;;;;;2.58;2.03;;;17.10;99.90;;;;;;5061103;28;20263;-67
2023/09/01 03:38:41;;;;;;;2.40;2.17;;;17.20;99.90;;;;;;5055547;28;20239;-66
2023/09/01 03:41:07;;;;;;;4.40;2.78;;;17.20;99.90;;;;;;5061419;28;20169;-66
2023/09/01 03:43:38;;;;;;;3.47;2.08;;;17.20;99.90;;;;;;5053933;28;20169;-66
2023/09/01 03:46:05;;;;;;;3.72;2.00;;;17.20;99.90;;;;;;5044389;28;20173;-66
2023/09/01 03:48:31;;;;;;;3.15;2.08;;;17.20;99.90;;;;;;5055036;28;20219;-66
2023/09/01 03:51:16;;;;;;;3.10;1.92;;;17.20;99.90;;;;;;5041890;28;20197;-66
2023/09/01 03:53:42;;;;;;;2.50;1.90;;;17.20;99.90;;;;;;5060267;28;20236;-66
2023/09/01 03:56:15;;;;;;;2.20;1.60;;;17.20;99.90;;;;;;5060590;28;20196;-66
2023/09/01 03:58:43;;;;;;;2.33;1.50;;;17.20;99.90;;;;;;5060694;28;20274;-66
2023/09/01 04:01:11;;;;;;;3.05;2.50;;;17.30;99.90;;;;;;5062792;28;20177;-67
2023/09/01 04:03:41;;;;;;;2.35;2.00;;;17.20;99.90;;;;;;5045323;28;20255;-67
2023/09/01 04:06:07;;;;;;;3.10;1.90;;;17.30;99.90;;;;;;5073272;28;20238;-66
2023/09/01 04:08:34;;;;;;;1.85;1.52;;;17.30;99.90;;;;;;5068265;28;20177;-66
2023/09/01 04:11:03;;;;;;;2.78;1.80;;;17.30;99.90;;;;;;5060328;28;20283;-66
2023/09/01 04:13:29;;;;;;;2.15;1.42;;;17.30;99.90;;;;;;5070773;28;20181;-66
2023/09/01 04:15:55;;;;;;;2.35;1.63;;;17.30;99.90;;;;;;5060554;28;20177;-67
2023/09/01 04:18:22;;;;;;;2.67;1.60;;;17.40;99.90;;;;;;5057670;28;20193;-67
2023/09/01 04:20:51;;;;;;;2.72;1.65;;;17.40;99.90;;;;;;5043571;28;20181;-67
2023/09/01 04:23:17;;;;;;;3.10;1.80;;;17.40;99.90;;;;;;5055846;28;20205;-66
2023/09/01 04:25:44;;;;;;;2.40;1.70;;;17.40;99.90;;;;;;5059371;28;20245;-66
2023/09/01 04:28:13;;;;;;;1.88;1.42;;;17.40;99.90;;;;;;5060738;28;20259;-67
2023/09/01 04:30:40;;;;;;;3.50;2.40;;;17.40;99.90;;;;;;5048182;28;20258;-67
2023/09/01 04:33:06;;;;;;;3.63;2.22;;;17.40;99.90;;;;;;5057468;28;20173;-68
2023/09/01 04:35:32;;;;;;;3.42;2.05;;;17.40;99.90;;;;;;5073932;28;20230;-67
2023/09/01 04:37:58;;;;;;;2.50;1.98;;;17.40;99.90;;;;;;5060091;28;20215;-67
2023/09/01 04:40:25;;;;;;;3.42;1.90;;;17.40;99.90;;;;;;5065200;28;20204;-67
2023/09/01 04:42:51;;;;;;;3.95;1.85;;;17.40;99.90;;;;;;5060425;28;20204;-67
2023/09/01 04:45:17;;;;;;;2.78;1.83;;;17.50;99.90;;;;;;5060382;28;20168;-67
2023/09/01 04:47:42;;;;;;;1.50;1.40;;;17.50;99.90;;;;;;5059793;28;20221;-67
2023/09/01 04:50:08;;;;;;;1.80;1.42;;;17.50;99.90;;;;;;5062066;28;20204;-67
2023/09/01 04:52:34;;;;;;;6.45;4.28;;;17.50;99.90;;;;;;5069154;28;20188;-68
2023/09/01 04:55:00;;;;;;;4.97;2.70;;;17.50;99.90;;;;;;5060027;28;20229;-67
2023/09/01 04:57:26;;;;;;;2.78;2.00;;;17.50;99.90;;;;;;5064865;28;20232;-66
2023/09/01 04:59:51;;;;;;;2.47;1.80;;;17.50;99.90;;;;;;5069526;28;20201;-66
2023/09/01 05:02:20;;;;;;;1.60;1.50;;;17.50;99.90;;;;;;5054446;28;20196;-69
2023/09/01 05:04:47;;;;;;;3.70;1.85;;;17.50;99.90;;;;;;5076311;28;20192;-69
2023/09/01 05:07:13;;;;;;;1.75;1.50;;;17.50;99.90;;;;;;5059322;28;20183;-69
2023/09/01 05:09:39;;;;;;;3.05;1.52;;;17.50;99.90;;;;;;5059793;28;20196;-69
2023/09/01 05:12:07;;;;;;;1.98;1.30;;;17.50;99.90;;;;;;5059347;28;20173;-71
2023/09/01 05:14:32;;;;;;;2.58;1.50;;;17.50;99.90;;;;;;5059599;28;20263;-72
2023/09/01 05:16:58;;;;;;;1.70;1.50;;;17.60;99.90;;;;;;5059659;28;20211;-72
2023/09/01 05:19:24;;;;;;;2.83;1.40;;;17.50;99.90;;;;;;5059440;28;20219;-72
2023/09/01 05:21:50;;;;;;;2.08;1.50;;;17.60;99.90;;;;;;5059561;28;20222;-74
2023/09/01 05:24:18;;;;;;;1.75;1.40;;;17.60;99.90;;;;;;5059772;28;20169;-72
2023/09/01 05:26:43;;;;;;;1.70;1.25;;;17.60;99.90;;;;;;5059425;28;20230;-70
2023/09/01 05:29:09;;;;;;;2.20;1.30;;;17.60;99.90;;;;;;5074361;28;20204;-72
2023/09/01 05:31:35;;;;;;;2.50;1.30;;;17.60;99.90;;;;;;5058914;28;20180;-72
2023/09/01 05:34:00;;;;;;;2.50;1.40;;;17.60;99.90;;;;;;5055397;28;20169;-73
2023/09/01 05:36:26;;;;;;;2.05;1.50;;;17.60;99.90;;;;;;5053179;28;20204;-72
2023/09/01 05:38:51;;;;;;;2.75;1.27;;;17.70;99.90;;;;;;5058860;28;20208;-72
2023/09/01 05:41:17;;;;;;;4.78;1.58;;;17.70;99.90;;;;;;5059125;28;20269;-71
2023/09/01 05:43:43;;;;;;;1.65;1.25;;;17.70;99.90;;;;;;5058501;28;20203;-71
2023/09/01 05:46:11;;;;;;;1.33;1.20;;;17.70;99.90;;;;;;5059095;28;20173;-71
2023/09/01 05:48:36;;;;;;;1.70;1.05;;;17.80;99.90;;;;;;5058833;28;20180;-73
2023/09/01 05:51:03;;;;;;;2.50;1.40;;;17.80;99.90;;;;;;5058986;28;20180;-72
2023/09/01 05:53:28;;;;;;;3.40;1.30;;;17.80;99.90;;;;;;5057364;28;20184;-72
2023/09/01 05:55:54;;;;;;;2.00;1.40;;;17.80;99.90;;;;;;5058589;28;20211;-71
2023/09/01 05:58:24;;;;;;;1.50;1.20;;;17.80;99.90;;;;;;5058364;28;20165;-72
2023/09/01 06:00:52;;;;;;;1.10;1.00;;;17.90;99.90;;;;;;5058413;28;20219;-72
2023/09/01 06:03:20;;;;;;;2.65;1.20;;;17.90;99.90;;;;;;5058551;28;20173;-72
2023/09/01 06:05:46;;;;;;;1.48;1.10;;;17.90;99.90;;;;;;5058345;28;20187;-72
2023/09/01 06:08:13;;;;;;;1.67;1.27;;;18.00;99.90;;;;;;5058431;28;20172;-79
2023/09/01 06:10:41;;;;;;;1.75;1.20;;;18.00;99.90;;;;;;5059209;28;20195;-78
2023/09/01 06:13:07;;;;;;;2.50;1.20;;;18.10;99.90;;;;;;5058628;28;20176;-77
2023/09/01 06:15:37;;;;;;;1.55;1.20;;;18.10;99.90;;;;;;5058503;28;20207;-77
2023/09/01 06:18:05;;;;;;;1.55;1.17;;;18.20;99.90;;;;;;5058616;28;20169;-76
2023/09/01 06:20:33;;;;;;;1.15;1.02;;;18.30;99.90;;;;;;5055139;28;20215;-77
2023/09/01 06:23:02;;;;;;;1.38;0.93;;;18.30;99.90;;;;;;5057309;28;20177;-74
2023/09/01 06:25:30;;;;;;;1.83;1.27;;;18.40;99.90;;;;;;5054083;28;20176;-78
2023/09/01 06:27:56;;;;;;;1.00;0.90;;;18.40;99.90;;;;;;5059028;28;20179;-76
2023/09/01 06:30:23;;;;;;;1.10;1.00;;;18.50;99.90;;;;;;5057536;28;20189;-77
2023/09/01 06:32:48;;;;;;;1.40;0.93;;;18.50;99.90;;;;;;5049340;28;20195;-77
2023/09/01 06:35:17;;;;;;;1.25;1.02;;;18.50;99.90;;;;;;5058900;28;20192;-76
2023/09/01 06:37:43;;;;;;;1.30;1.10;;;18.50;99.90;;;;;;5057805;28;20165;-76
2023/09/01 06:40:09;;;;;;;1.73;1.10;;;18.50;99.90;;;;;;5057790;28;20222;-75
2023/09/01 06:42:34;;;;;;;2.13;1.10;;;18.50;99.90;;;;;;5075397;28;20196;-70
2023/09/01 06:45:03;;;;;;;1.50;1.00;;;18.50;99.90;;;;;;5057768;28;20225;-71
2023/09/01 06:47:31;;;;;;;1.88;1.20;;;18.50;99.90;;;;;;5056937;28;20210;-72
2023/09/01 06:49:57;;;;;;;1.17;1.00;;;18.50;99.90;;;;;;5057165;28;20189;-73
2023/09/01 06:52:22;;;;;;;1.70;1.40;;;18.40;99.90;;;;;;5057990;28;20341;-73
2023/09/01 06:54:49;;;;;;;1.60;1.08;;;18.40;99.90;;;;;;5057704;28;20201;-71
2023/09/01 06:57:15;;;;;;;1.48;1.00;;;18.40;99.90;;;;;;5057884;28;20168;-72
2023/09/01 06:59:43;;;;;;;1.75;1.02;;;18.40;99.90;;;;;;5057563;28;20196;-72
2023/09/01 07:02:13;;;;;;;1.30;0.98;;;18.30;99.90;;;;;;5058616;28;20234;-72
2023/09/01 07:04:41;;;;;;;1.00;0.90;;;18.40;99.90;;;;;;5061153;28;20178;-71
2023/09/01 07:07:09;;;;;;;1.48;0.90;;;18.30;99.90;;;;;;5060989;28;20193;-72
2023/09/01 07:09:37;;;;;;;1.73;1.10;;;18.30;99.90;;;;;;5061460;28;20173;-73
2023/09/01 07:12:03;;;;;;;1.25;1.02;;;18.20;99.90;;;;;;5061142;28;20301;-74
2023/09/01 07:14:32;;;;;;;1.15;0.98;;;18.20;99.90;;;;;;5061647;28;20278;-75
2023/09/01 07:16:57;;;;;;;1.10;1.00;;;18.10;99.90;;;;;;5061228;28;20188;-75
2023/09/01 07:19:23;;;;;;;2.25;1.15;;;18.10;99.90;;;;;;5061348;28;20223;-75
2023/09/01 07:21:53;;;;;;;1.33;0.82;;;18.00;99.90;;;;;;5061560;28;20173;-76
2023/09/01 07:24:22;;;;;;;2.53;1.15;;;18.00;99.90;;;;;;5061341;28;20200;-75
2023/09/01 07:26:47;;;;;;;2.65;1.10;;;17.90;99.90;;;;;;5061315;28;20263;-73
2023/09/01 07:29:17;;;;;;;2.33;1.30;;;17.90;99.90;;;;;;5061413;28;20222;-74
2023/09/01 07:31:48;;;;;;;2.13;1.27;;;17.90;99.90;;;;;;5061201;28;20188;-74
2023/09/01 07:34:16;;;;;;;1.95;1.40;;;17.90;99.90;;;;;;5060853;28;20190;-74
2023/09/01 07:36:42;;;;;;;2.00;1.15;;;17.80;99.90;;;;;;5065801;28;20168;-73
2023/09/01 07:39:10;;;;;;;2.60;1.40;;;17.80;99.90;;;;;;5057444;28;20216;-74
2023/09/01 07:41:35;;;;;;;2.90;1.60;;;17.80;99.90;;;;;;5040955;28;20249;-75
2023/09/01 07:44:04;;;;;;;2.17;1.45;;;17.80;99.90;;;;;;5057826;28;20248;-74
2023/09/01 07:46:33;;;;;;;2.15;1.80;;;17.80;99.90;;;;;;5069914;28;20252;-74
2023/09/01 07:49:02;;;;;;;2.00;1.50;;;17.80;99.90;;;;;;5052718;28;20361;-75
2023/09/01 07:51:28;;;;;;;2.92;1.73;;;17.80;99.90;;;;;;5040426;28;20209;-75
2023/09/01 07:53:56;;;;;;;2.47;1.73;;;17.80;99.90;;;;;;5041188;28;20173;-75
2023/09/01 07:56:21;;;;;;;1.52;1.30;;;17.80;99.90;;;;;;5040865;28;20173;-74
2023/09/01 07:58:47;;;;;;;1.77;1.60;;;17.80;99.90;;;;;;5040878;28;20208;-73
2023/09/01 08:01:17;;;;;;;2.97;1.50;;;17.80;99.90;;;;;;5058130;28;20251;-74
2023/09/01 08:03:52;;;;;;;2.95;1.58;;;17.80;99.90;;;;;;5040609;28;20180;-75
2023/09/01 08:06:17;;;;;;;1.98;1.50;;;17.80;99.90;;;;;;5041544;28;20192;-75
2023/09/01 08:08:43;;;;;;;1.80;1.40;;;17.80;99.90;;;;;;5040372;28;20170;-75
2023/09/01 08:11:09;;;;;;;2.47;1.77;;;17.80;99.90;;;;;;5040516;28;20180;-73
2023/09/01 08:13:36;;;;;;;1.73;1.45;;;17.80;99.90;;;;;;5039975;28;20176;-74
2023/09/01 08:16:02;;;;;;;2.25;1.33;;;17.80;99.90;;;;;;5040265;28;20255;-74
2023/09/01 08:18:28;;;;;;;1.50;1.15;;;17.90;99.90;;;;;;5040547;28;20203;-67
2023/09/01 08:20:59;;;;;;;1.70;1.40;;;17.90;99.90;;;;;;5060000;28;20192;-74
2023/09/01 08:23:30;;;;;;;2.70;1.40;;;17.90;99.90;;;;;;5060544;28;20173;-74
2023/09/01 08:25:58;;;;;;;2.15;1.15;;;17.90;99.90;;;;;;5060308;28;20283;-74
2023/09/01 08:28:23;;;;;;;1.92;1.30;;;17.90;99.90;;;;;;5060442;28;20164;-74
2023/09/01 08:30:53;;;;;;;1.67;1.30;;;17.90;99.90;;;;;;5060064;28;20190;-74
2023/09/01 08:33:25;;;;;;;1.48;1.20;;;18.00;99.90;;;;;;5059704;28;20261;-73
2023/09/01 08:35:50;;;;;;;1.42;1.13;;;18.00;99.90;;;;;;5060134;28;20176;-74
2023/09/01 08:38:18;;;;;;;1.33;1.20;;;18.10;99.90;;;;;;5060015;28;20185;-74
2023/09/01 08:40:44;;;;;;;1.52;1.00;;;18.10;99.90;;;;;;5059710;28;20208;-74
2023/09/01 08:43:12;;;;;;;1.77;1.02;;;18.10;99.90;;;;;;5059699;28;20260;-73
2023/09/01 08:45:42;;;;;;;1.30;1.10;;;18.10;99.90;;;;;;5060413;28;20165;-74
2023/09/01 08:48:08;;;;;;;1.55;1.10;;;18.20;99.90;;;;;;5077697;28;20184;-76
2023/09/01 08:50:36;;;;;;;2.05;1.00;;;18.30;99.90;;;;;;5059724;28;20188;-75
2023/09/01 08:53:06;;;;;;;1.85;0.95;;;18.30;99.90;;;;;;5059460;28;20176;-73
2023/09/01 08:55:34;;;;;;;1.20;0.90;;;18.40;99.90;;;;;;5059633;28;20181;-75
2023/09/01 08:57:59;;;;;;;1.00;0.88;;;18.50;99.90;;;;;;5060144;28;20172;-75
2023/09/01 09:00:33;;;;;;;1.10;0.90;;;18.50;99.90;;;;;;5059632;28;20221;-74
2023/09/01 09:03:05;;;;;;;1.05;0.93;;;18.60;99.90;;;;;;5059464;28;20172;-74
2023/09/01 09:05:33;;;;;;;1.10;1.00;;;18.70;99.90;;;;;;5059729;28;20192;-74
2023/09/01 09:07:59;;;;;;;1.48;1.00;;;18.80;99.90;;;;;;5059535;28;20196;-74
2023/09/01 09:10:36;;;;;;;1.38;1.00;;;18.90;99.90;;;;;;5059378;28;20176;-74
2023/09/01 09:13:23;;;;;;;1.20;1.00;;;18.90;99.90;;;;;;5059629;28;20259;-74
2023/09/01 09:16:11;;;;;;;1.75;0.90;;;19.00;99.90;;;;;;5059471;28;20311;-75
2023/09/01 09:18:49;;;;;;;0.98;0.90;;;19.10;99.90;;;;;;5059082;28;20184;-74
2023/09/01 09:21:25;;;;;;;2.65;1.10;;;19.20;99.90;;;;;;5039251;28;20254;-74
2023/09/01 09:23:54;;;;;;;1.30;1.10;;;19.20;99.90;;;;;;5039252;28;20169;-73
2023/09/01 09:26:30;;;;;;;2.47;1.08;;;19.30;99.90;;;;;;5038888;28;20177;-74
2023/09/01 09:29:10;;;;;;;2.15;1.13;;;19.40;99.90;;;;;;5039163;28;20223;-75
2023/09/01 09:31:44;;;;;;;2.53;1.45;;;19.40;99.90;;;;;;5038532;28;20177;-75
2023/09/01 09:34:23;;;;;;;1.70;1.23;;;19.40;99.90;;;;;;5038844;28;20177;-75
2023/09/01 09:36:49;;;;;;;4.15;1.50;;;19.50;99.90;;;;;;5039563;28;20195;-73
2023/09/01 09:39:25;;;;;;;1.73;1.30;;;19.50;99.90;;;;;;5072234;28;20270;-75
2023/09/01 09:41:56;;;;;;;1.85;1.40;;;19.60;99.90;;;;;;5058746;28;20192;-75
2023/09/01 09:44:26;;;;;;;1.40;1.08;;;19.60;99.90;;;;;;5058862;28;20196;-74
2023/09/01 09:46:57;;;;;;;3.70;1.23;;;19.60;99.90;;;;;;5058967;28;20180;-70
2023/09/01 09:49:24;;;;;;;1.60;1.27;;;19.70;99.90;;;;;;5059475;28;20207;-71
2023/09/01 09:51:53;;;;;;;3.38;1.40;;;19.70;99.90;;;;;;5059080;28;20203;-71
2023/09/01 09:54:23;;;;;;;1.83;1.20;;;19.70;99.90;;;;;;5058964;28;20177;-69
2023/09/01 09:56:55;;;;;;;1.20;1.08;;;19.70;99.90;;;;;;5058899;28;20259;-73
2023/09/01 09:59:45;;;;;;;1.65;1.02;;;19.70;99.90;;;;;;5058477;28;20203;-73
2023/09/01 10:02:24;;;;;;;1.88;1.20;;;19.70;99.90;;;;;;5058133;28;20196;-76
2023/09/01 10:04:54;;;;;;;1.42;1.10;;;19.70;99.90;;;;;;5058811;28;20213;-74
2023/09/01 10:07:25;;;;;;;1.55;1.23;;;19.60;99.90;;;;;;5058224;28;20184;-73
2023/09/01 10:09:56;;;;;;;1.10;0.90;;;19.60;99.90;;;;;;5058211;28;20208;-74
2023/09/01 10:12:23;;;;;;;1.20;1.00;;;19.60;99.90;;;;;;5058595;28;20168;-74
2023/09/01 10:14:54;;;;;;;1.30;1.13;;;19.60;99.90;;;;;;5058376;28;20180;-74
2023/09/01 10:17:21;;;;;;;1.95;1.20;;;19.60;99.90;;;;;;5058131;28;20192;-73
2023/09/01 10:19:50;;;;;;;2.42;1.08;;;19.60;99.90;;;;;;5058476;28;20192;-74
2023/09/01 10:22:19;;;;;;;1.70;1.02;;;19.60;99.90;;;;;;5058744;28;20192;-74
2023/09/01 10:25:15;;;;;;;1.10;1.00;;;19.60;99.90;;;;;;5058459;28;20165;-74
2023/09/01 10:28:00;;;;;;;1.13;1.00;;;19.60;99.90;;;;;;5058505;28;20183;-75
2023/09/01 10:30:27;;;;;;;1.40;1.20;;;19.60;99.90;;;;;;5058932;28;20270;-76
2023/09/01 10:33:14;;;;;;;1.20;1.10;;;19.60;99.90;;;;;;5058500;28;20187;-75
2023/09/01 10:35:40;;;;;;;1.33;1.15;;;19.60;99.90;;;;;;5058237;28;20180;-75
2023/09/01 10:38:13;;;;;;;1.70;1.30;;;19.60;99.90;;;;;;5057502;28;20178;-73
2023/09/01 10:40:59;;;;;;;1.63;1.15;;;19.60;99.90;;;;;;5059199;28;20230;-74
2023/09/01 10:43:41;;;;;;;1.60;1.10;;;19.60;99.90;;;;;;5058289;28;20192;-74
2023/09/01 10:46:18;;;;;;;1.50;1.13;;;19.60;99.90;;;;;;5058454;28;20217;-75
2023/09/01 10:48:58;;;;;;;1.35;1.10;;;19.60;99.90;;;;;;5058527;28;20231;-75
2023/09/01 10:51:37;;;;;;;1.20;1.10;;;19.60;99.90;;;;;;5057992;28;20237;-75
2023/09/01 10:54:22;;;;;;;1.92;1.00;;;19.60;99.90;;;;;;5058498;28;20183;-76
2023/09/01 10:57:02;;;;;;;1.42;1.08;;;19.70;99.90;;;;;;5057868;28;20192;-75
2023/09/01 10:59:37;;;;;;;1.80;1.30;;;19.70;99.90;;;;;;5058503;28;20281;-75
2023/09/01 11:02:22;;;;;;;1.60;1.20;;;19.80;99.90;;;;;;5058425;28;20255;-75
2023/09/01 11:04:51;;;;;;;1.65;1.10;;;19.90;99.90;;;;;;5058278;28;20252;-75
2023/09/01 11:07:19;;;;;;;3.63;1.50;;;19.90;99.90;;;;;;5057800;28;20169;-75
2023/09/01 11:09:52;;;;;;;1.90;1.15;;;20.00;99.90;;;;;;5057964;28;20177;-75
2023/09/01 11:12:25;;;;;;;1.80;1.55;;;20.10;99.90;;;;;;5058189;28;20176;-75
2023/09/01 11:14:55;;;;;;;1.90;1.30;;;20.10;99.90;;;;;;5058486;28;20247;-74
2023/09/01 11:17:48;;;;;;;1.92;1.42;;;20.10;99.90;;;;;;5057727;28;20304;-76
2023/09/01 11:20:19;;;;;;;2.30;1.40;;;20.20;99.90;;;;;;5058909;28;20200;-75
2023/09/01 11:22:45;;;;;;;1.52;1.30;;;20.30;99.90;;;;;;5059284;28;20153;-76
2023/09/01 11:25:18;;;;;;;2.08;1.17;;;20.30;99.90;;;;;;5058785;28;20189;-75
2023/09/01 11:27:48;;;;;;;2.55;1.30;;;20.30;99.90;;;;;;5060165;28;20177;-73
2023/09/01 11:30:19;;;;;;;1.50;1.30;;;20.40;99.90;;;;;;5062206;28;20230;-69
2023/09/01 11:32:45;;;;;;;2.22;1.40;;;20.40;99.90;;;;;;5062949;28;20195;-76
2023/09/01 11:35:31;;;;;;;1.80;1.20;;;20.40;99.90;;;;;;5063884;28;20180;-74
2023/09/01 11:38:02;;;;;;;2.17;1.50;;;20.50;99.90;;;;;;5062866;28;20193;-75
2023/09/01 11:40:32;;;;;;;1.85;1.20;;;20.50;99.90;;;;;;5058039;28;20224;-75
2023/09/01 11:43:01;;;;;;;1.85;1.25;;;20.60;99.90;;;;;;5057968;28;20192;-75
2023/09/01 11:45:33;;;;;;;2.08;1.05;;;20.60;99.90;;;;;;5058693;28;20192;-75
2023/09/01 11:48:04;;;;;;;1.20;1.00;;;20.70;99.90;;;;;;5057406;28;20218;-75
2023/09/01 11:50:33;;;;;;;1.15;0.90;;;20.80;99.90;;;;;;5061225;28;20192;-72
2023/09/01 11:53:01;;;;;;;1.10;1.00;;;20.80;99.90;;;;;;5061424;28;20180;-75
2023/09/01 11:55:34;;;;;;;2.17;1.35;;;20.80;99.90;;;;;;5060807;28;20179;-74
2023/09/01 11:58:02;;;;;;;1.00;0.90;;;20.80;99.90;;;;;;5061280;28;20169;-75
2023/09/01 12:00:36;;;;;;;1.20;1.00;;;20.90;99.90;;;;;;5060465;28;20287;-75
2023/09/01 12:03:08;;;;;;;2.60;0.98;;;20.90;99.90;;;;;;5061135;28;20192;-75
2023/09/01 12:05:43;;;;;;;4.00;3.53;;;20.90;99.90;;;;;;5061129;28;20198;-75
2023/09/01 12:08:15;;;;;;;2.72;1.90;;;20.90;99.90;;;;;;5062092;28;20172;-75
2023/09/01 12:10:43;;;;;;;2.40;1.83;;;21.00;99.90;;;;;;5060764;28;20241;-76
2023/09/01 12:13:10;;;;;;;1.52;1.42;;;21.00;99.90;;;;;;5060679;28;20295;-76
2023/09/01 12:15:56;;;;;;;1.83;1.35;;;21.00;99.90;;;;;;5060780;28;20177;-75
2023/09/01 12:18:39;;;;;;;1.75;1.02;;;21.10;99.90;;;;;;5061300;28;20176;-74
2023/09/01 12:21:07;;;;;;;1.48;1.30;;;21.10;99.90;;;;;;5040912;28;20170;-75
2023/09/01 12:23:38;;;;;;;1.70;1.27;;;21.10;99.90;;;;;;5040587;28;20184;-75
2023/09/01 12:26:04;;;;;;;2.10;1.30;;;21.20;99.90;;;;;;5041041;28;20284;-73
2023/09/01 12:28:33;;;;;;;2.20;1.27;;;21.20;99.90;;;;;;5060429;28;20264;-76
2023/09/01 12:31:00;;;;;;;1.90;1.10;;;21.20;99.90;;;;;;5060657;28;20173;-75
2023/09/01 12:33:28;;;;;;;1.92;1.10;;;21.20;99.90;;;;;;5060332;28;20235;-76
2023/09/01 12:35:54;;;;;;;1.77;1.23;;;21.30;99.90;;;;;;5059797;28;20169;-77
2023/09/01 12:38:20;;;;;;;1.35;1.10;;;21.30;99.90;;;;;;5060037;28;20329;-76
2023/09/01 12:40:52;;;;;;;1.55;1.40;;;21.40;99.90;;;;;;5059919;28;20196;-74
2023/09/01 12:43:18;;;;;;;1.70;1.17;;;21.40;99.90;;;;;;5060172;28;20190;-76
2023/09/01 12:45:45;;;;;;;1.50;1.40;;;21.40;99.90;;;;;;5059726;28;20165;-76
2023/09/01 12:48:14;;;;;;;2.92;1.83;;;21.50;99.90;;;;;;5077402;28;20308;-75
2023/09/01 12:50:47;;;;;;;2.85;1.70;;;21.60;99.90;;;;;;5079506;28;20196;-74
2023/09/01 12:53:13;;;;;;;2.33;1.60;;;21.60;99.90;;;;;;5079859;28;20231;-74
2023/09/01 12:55:39;;;;;;;1.40;1.30;;;21.70;99.90;;;;;;5079594;28;20255;-76
2023/09/01 12:58:10;;;;;;;1.52;1.40;;;21.80;99.90;;;;;;5079606;28;20267;-76
2023/09/01 13:00:45;;;;;;;1.55;1.20;;;21.80;99.90;;;;;;5078780;28;20207;-76